createdAt,value
2019-01-05T00:00:53.005Z,95.77
2019-01-05T00:01:52.959Z,95.61
2019-01-05T00:02:52.944Z,95.36
2019-01-05T00:03:52.934Z,95.93
2019-01-05T00:04:52.925Z,96.08
2019-01-05T00:05:52.888Z,96.08
2019-01-05T00:06:52.908Z,95.46
2019-01-05T00:07:52.940Z,95.36
2019-01-05T00:08:52.875Z,95.67
2019-01-05T00:09:52.858Z,95.25
2019-01-05T00:10:52.834Z,95.67
2019-01-05T00:11:52.826Z,95.31
2019-01-05T00:12:52.837Z,95.77
2019-01-05T00:13:52.848Z,95.56
2019-01-05T00:14:52.816Z,95.98
2019-01-05T00:15:52.813Z,95.98
2019-01-05T00:16:52.772Z,96.03
2019-01-05T00:17:52.773Z,95.31
2019-01-05T00:18:52.774Z,95.00
2019-01-05T00:19:52.746Z,95.15
2019-01-05T00:20:52.753Z,95.93
2019-01-05T00:21:52.711Z,96.03
2019-01-05T00:22:52.738Z,95.41
2019-01-05T00:23:52.683Z,94.84
2019-01-05T00:24:52.680Z,96.19
2019-01-05T00:25:52.673Z,95.93
2019-01-05T00:26:52.722Z,95.36
2019-01-05T00:27:52.671Z,95.46
2019-01-05T00:28:52.632Z,95.51
2019-01-05T00:29:52.615Z,95.10
2019-01-05T00:30:52.610Z,94.68
2019-01-05T00:31:52.611Z,94.58
2019-01-05T00:32:52.650Z,94.89
2019-01-05T00:33:52.569Z,94.54
2019-01-05T00:34:52.572Z,94.33
2019-01-05T00:35:52.596Z,94.12
2019-01-05T00:36:52.546Z,93.50
2019-01-05T00:37:52.556Z,93.40
2019-01-05T00:38:52.516Z,93.85
2019-01-05T00:39:52.563Z,94.68
2019-01-05T00:40:52.493Z,94.37
2019-01-05T00:41:52.497Z,94.79
2019-01-05T00:42:52.516Z,94.48
2019-01-05T00:43:52.467Z,94.58
2019-01-05T00:44:52.461Z,94.89
2019-01-05T00:45:52.468Z,94.27
2019-01-05T00:46:52.520Z,94.06
2019-01-05T00:47:52.428Z,94.27
2019-01-05T00:48:52.509Z,94.27
2019-01-05T00:49:52.409Z,94.37
2019-01-05T00:50:52.402Z,94.17
2019-01-05T00:51:52.371Z,94.54
2019-01-05T00:52:52.401Z,94.58
2019-01-05T00:53:52.429Z,94.33
2019-01-05T00:54:52.348Z,93.91
2019-01-05T00:55:52.328Z,94.95
2019-01-05T00:56:52.326Z,94.54
2019-01-05T00:57:52.305Z,93.81
2019-01-05T00:58:52.331Z,94.02
2019-01-05T00:59:52.327Z,94.12
2019-01-05T01:00:52.273Z,94.79
2019-01-05T01:01:52.258Z,95.00
2019-01-05T01:02:52.249Z,94.23
2019-01-05T01:03:52.260Z,94.33
2019-01-05T01:04:52.227Z,94.33
2019-01-05T01:05:52.242Z,94.64
2019-01-05T01:06:52.209Z,93.96
2019-01-05T01:07:52.193Z,94.48
2019-01-05T01:08:52.212Z,94.23
2019-01-05T01:09:52.170Z,94.64
2019-01-05T01:10:52.162Z,95.00
2019-01-05T01:11:52.189Z,95.00
2019-01-05T01:12:52.157Z,93.91
2019-01-05T01:13:52.126Z,94.33
2019-01-05T01:14:52.142Z,94.12
2019-01-05T01:15:52.105Z,94.95
2019-01-05T01:16:52.089Z,94.12
2019-01-05T01:17:52.115Z,94.74
2019-01-05T01:18:52.068Z,94.54
2019-01-05T01:19:52.085Z,94.54
2019-01-05T01:20:52.051Z,93.81
2019-01-05T01:21:52.048Z,94.91
2019-01-05T01:22:52.019Z,93.46
2019-01-05T01:23:52.022Z,93.25
2019-01-05T01:24:52.024Z,93.25
2019-01-05T01:25:51.990Z,93.56
2019-01-05T01:26:51.979Z,92.84
2019-01-05T01:27:51.965Z,93.15
2019-01-05T01:28:51.955Z,93.25
2019-01-05T01:29:52.003Z,93.25
2019-01-05T01:30:51.940Z,93.15
2019-01-05T01:31:51.940Z,93.56
2019-01-05T01:32:51.918Z,93.66
2019-01-05T01:33:51.905Z,93.56
2019-01-05T01:34:51.917Z,93.46
2019-01-05T01:35:51.941Z,92.84
2019-01-05T01:36:51.869Z,93.19
2019-01-05T01:37:51.857Z,93.71
2019-01-05T01:38:51.841Z,93.77
2019-01-05T01:39:51.834Z,93.81
2019-01-05T01:40:51.846Z,93.60
2019-01-05T01:41:51.846Z,94.54
2019-01-05T01:42:51.800Z,94.23
2019-01-05T01:43:51.786Z,94.43
2019-01-05T01:44:51.777Z,94.29
2019-01-05T01:45:51.795Z,94.39
2019-01-05T01:46:51.754Z,94.49
2019-01-05T01:47:51.769Z,93.87
2019-01-05T01:48:51.732Z,94.29
2019-01-05T01:49:51.728Z,93.46
2019-01-05T01:50:51.734Z,94.49
2019-01-05T01:51:51.703Z,94.60
2019-01-05T01:52:51.685Z,94.08
2019-01-05T01:53:51.705Z,93.60
2019-01-05T01:54:51.667Z,94.23
2019-01-05T01:55:51.678Z,94.18
2019-01-05T01:56:51.650Z,94.39
2019-01-05T01:57:51.640Z,94.39
2019-01-05T01:58:51.623Z,93.56
2019-01-05T01:59:51.626Z,93.15
2019-01-05T02:00:51.629Z,93.66
2019-01-05T02:01:51.587Z,94.18
2019-01-05T02:02:51.586Z,94.18
2019-01-05T02:03:51.567Z,93.87
2019-01-05T02:04:51.556Z,94.39
2019-01-05T02:05:51.628Z,94.08
2019-01-05T02:06:51.536Z,94.70
2019-01-05T02:07:51.522Z,94.29
2019-01-05T02:08:51.514Z,94.18
2019-01-05T02:09:51.500Z,94.39
2019-01-05T02:10:51.526Z,94.70
2019-01-05T02:11:51.510Z,94.60
2019-01-05T02:12:51.483Z,94.81
2019-01-05T02:13:51.464Z,94.70
2019-01-05T02:14:51.442Z,94.70
2019-01-05T02:15:51.434Z,94.49
2019-01-05T02:16:51.451Z,94.18
2019-01-05T02:17:51.444Z,94.70
2019-01-05T02:18:51.401Z,94.49
2019-01-05T02:19:51.395Z,94.08
2019-01-05T02:20:51.381Z,94.18
2019-01-05T02:21:51.394Z,93.77
2019-01-05T02:22:51.356Z,94.60
2019-01-05T02:23:51.378Z,94.70
2019-01-05T02:24:51.330Z,94.08
2019-01-05T02:25:51.318Z,94.60
2019-01-05T02:26:51.335Z,94.60
2019-01-05T02:27:51.300Z,94.49
2019-01-05T02:28:51.289Z,94.81
2019-01-05T02:29:51.314Z,94.14
2019-01-05T02:30:51.263Z,94.24
2019-01-05T02:31:51.283Z,94.35
2019-01-05T02:32:51.248Z,94.35
2019-01-05T02:33:51.227Z,94.24
2019-01-05T02:34:51.230Z,94.76
2019-01-05T02:35:51.310Z,94.45
2019-01-05T02:36:51.224Z,94.24
2019-01-05T02:37:51.213Z,93.68
2019-01-05T02:38:51.174Z,92.96
2019-01-05T02:39:51.174Z,93.31
2019-01-05T02:40:51.152Z,93.21
2019-01-05T02:41:51.231Z,93.73
2019-01-05T02:42:51.159Z,94.56
2019-01-05T02:43:51.118Z,94.76
2019-01-05T02:44:51.115Z,94.81
2019-01-05T02:45:51.098Z,94.60
2019-01-05T02:46:51.085Z,95.18
2019-01-05T02:47:51.168Z,95.07
2019-01-05T02:48:51.088Z,95.07
2019-01-05T02:49:51.052Z,94.14
2019-01-05T02:50:51.039Z,95.22
2019-01-05T02:51:51.030Z,95.22
2019-01-05T02:52:51.023Z,96.05
2019-01-05T02:53:51.067Z,95.49
2019-01-05T02:54:50.992Z,95.95
2019-01-05T02:55:50.984Z,95.95
2019-01-05T02:56:50.970Z,94.60
2019-01-05T02:57:50.958Z,94.97
2019-01-05T02:58:50.973Z,94.35
2019-01-05T02:59:50.965Z,94.70
2019-01-05T03:00:50.930Z,95.07
2019-01-05T03:01:50.918Z,94.91
2019-01-05T03:02:50.907Z,95.95
2019-01-05T03:03:50.914Z,95.64
2019-01-05T03:04:50.883Z,95.12
2019-01-05T03:05:50.912Z,95.74
2019-01-05T03:06:50.861Z,95.53
2019-01-05T03:07:50.849Z,96.26
2019-01-05T03:08:50.875Z,95.84
2019-01-05T03:09:50.824Z,96.26
2019-01-05T03:10:50.817Z,96.26
2019-01-05T03:11:50.843Z,96.26
2019-01-05T03:12:50.792Z,95.84
2019-01-05T03:13:50.783Z,96.36
2019-01-05T03:14:50.794Z,96.36
2019-01-05T03:15:50.764Z,95.80
2019-01-05T03:16:50.746Z,96.26
2019-01-05T03:17:50.773Z,96.15
2019-01-05T03:18:50.732Z,95.74
2019-01-05T03:19:50.739Z,95.53
2019-01-05T03:20:50.702Z,95.64
2019-01-05T03:21:50.695Z,95.28
2019-01-05T03:22:50.689Z,95.32
2019-01-05T03:23:50.709Z,96.26
2019-01-05T03:24:50.684Z,95.32
2019-01-05T03:25:50.651Z,95.43
2019-01-05T03:26:50.634Z,95.64
2019-01-05T03:27:50.624Z,95.84
2019-01-05T03:28:50.616Z,95.74
2019-01-05T03:29:50.647Z,95.74
2019-01-05T03:30:50.590Z,95.59
2019-01-05T03:31:50.581Z,95.90
2019-01-05T03:32:50.571Z,95.90
2019-01-05T03:33:50.555Z,95.90
2019-01-05T03:34:50.570Z,94.97
2019-01-05T03:35:50.595Z,95.59
2019-01-05T03:36:50.526Z,95.90
2019-01-05T03:37:50.527Z,94.97
2019-01-05T03:38:50.500Z,95.95
2019-01-05T03:39:50.491Z,95.18
2019-01-05T03:40:50.498Z,96.26
2019-01-05T03:41:50.507Z,95.22
2019-01-05T03:42:50.465Z,95.80
2019-01-05T03:43:50.446Z,95.70
2019-01-05T03:44:50.434Z,95.84
2019-01-05T03:45:50.450Z,96.05
2019-01-05T03:46:50.407Z,95.28
2019-01-05T03:47:50.426Z,95.49
2019-01-05T03:48:50.385Z,96.11
2019-01-05T03:49:50.387Z,95.39
2019-01-05T03:50:50.410Z,95.12
2019-01-05T03:51:50.359Z,95.70
2019-01-05T03:52:50.378Z,95.84
2019-01-05T03:53:50.361Z,95.70
2019-01-05T03:54:50.317Z,95.49
2019-01-05T03:55:50.336Z,96.01
2019-01-05T03:56:50.324Z,96.01
2019-01-05T03:57:50.284Z,96.11
2019-01-05T03:58:50.276Z,95.90
2019-01-05T03:59:50.293Z,96.11
2019-01-05T04:00:50.270Z,96.21
2019-01-05T04:01:50.345Z,96.31
2019-01-05T04:02:50.237Z,96.11
2019-01-05T04:03:50.223Z,96.31
2019-01-05T04:04:50.216Z,96.47
2019-01-05T04:05:50.244Z,95.84
2019-01-05T04:06:50.210Z,96.01
2019-01-05T04:07:50.173Z,96.15
2019-01-05T04:08:50.170Z,96.31
2019-01-05T04:09:50.153Z,96.31
2019-01-05T04:10:50.146Z,96.01
2019-01-05T04:11:50.186Z,96.26
2019-01-05T04:12:50.119Z,96.01
2019-01-05T04:13:50.104Z,96.94
2019-01-05T04:14:50.102Z,95.90
2019-01-05T04:15:50.095Z,96.21
2019-01-05T04:16:50.082Z,96.11
2019-01-05T04:17:50.115Z,95.80
2019-01-05T04:18:50.054Z,96.21
2019-01-05T04:19:50.042Z,95.80
2019-01-05T04:20:50.035Z,96.31
2019-01-05T04:21:50.026Z,96.52
2019-01-05T04:22:50.031Z,97.04
2019-01-05T04:23:50.045Z,96.27
2019-01-05T04:24:49.986Z,96.27
2019-01-05T04:25:49.970Z,96.83
2019-01-05T04:26:49.970Z,96.01
2019-01-05T04:27:49.987Z,96.31
2019-01-05T04:28:49.939Z,96.21
2019-01-05T04:29:49.962Z,96.11
2019-01-05T04:30:49.913Z,96.31
2019-01-05T04:31:49.907Z,96.31
2019-01-05T04:32:49.918Z,96.47
2019-01-05T04:33:49.885Z,96.94
2019-01-05T04:34:49.874Z,96.73
2019-01-05T04:35:49.902Z,96.94
2019-01-05T04:36:49.851Z,96.73
2019-01-05T04:37:49.869Z,96.58
2019-01-05T04:38:49.855Z,96.83
2019-01-05T04:39:49.817Z,96.48
2019-01-05T04:40:49.806Z,96.17
2019-01-05T04:41:49.824Z,96.69
2019-01-05T04:42:49.784Z,96.58
2019-01-05T04:43:49.799Z,96.37
2019-01-05T04:44:49.762Z,95.90
2019-01-05T04:45:49.752Z,96.17
2019-01-05T04:46:49.741Z,96.42
2019-01-05T04:47:49.758Z,97.00
2019-01-05T04:48:49.739Z,96.52
2019-01-05T04:49:49.711Z,96.69
2019-01-05T04:50:49.694Z,96.73
2019-01-05T04:51:49.683Z,96.62
2019-01-05T04:52:49.674Z,97.31
2019-01-05T04:53:49.722Z,96.48
2019-01-05T04:54:49.648Z,97.00
2019-01-05T04:55:49.642Z,97.10
2019-01-05T04:56:49.635Z,97.10
2019-01-05T04:57:49.613Z,96.79
2019-01-05T04:58:49.634Z,97.00
2019-01-05T04:59:49.633Z,96.79
2019-01-05T05:00:49.588Z,96.48
2019-01-05T05:01:49.574Z,96.89
2019-01-05T05:02:49.559Z,97.00
2019-01-05T05:03:49.575Z,97.52
2019-01-05T05:04:49.540Z,97.25
2019-01-05T05:05:49.562Z,97.25
2019-01-05T05:06:49.519Z,97.56
2019-01-05T05:07:49.506Z,98.18
2019-01-05T05:08:49.518Z,97.83
2019-01-05T05:09:49.518Z,97.62
2019-01-05T05:10:49.476Z,97.45
2019-01-05T05:11:49.497Z,97.41
2019-01-05T05:12:49.459Z,97.45
2019-01-05T05:13:49.443Z,98.03
2019-01-05T05:14:49.457Z,97.77
2019-01-05T05:15:49.417Z,98.08
2019-01-05T05:16:49.406Z,98.18
2019-01-05T05:17:49.412Z,98.28
2019-01-05T05:18:49.385Z,98.49
2019-01-05T05:19:49.402Z,97.72
2019-01-05T05:20:49.361Z,98.13
2019-01-05T05:21:49.356Z,98.03
2019-01-05T05:22:49.340Z,97.97
2019-01-05T05:23:49.389Z,97.83
2019-01-05T05:24:49.342Z,98.55
2019-01-05T05:25:49.306Z,98.24
2019-01-05T05:26:49.294Z,98.24
2019-01-05T05:27:49.286Z,97.62
2019-01-05T05:28:49.271Z,98.13
2019-01-05T05:29:49.308Z,98.75
2019-01-05T05:30:49.253Z,98.61
2019-01-05T05:31:49.235Z,97.72
2019-01-05T05:32:49.234Z,97.99
2019-01-05T05:33:49.214Z,97.88
2019-01-05T05:34:49.230Z,97.52
2019-01-05T05:35:49.255Z,98.24
2019-01-05T05:36:49.197Z,97.93
2019-01-05T05:37:49.175Z,98.03
2019-01-05T05:38:49.162Z,98.13
2019-01-05T05:39:49.150Z,97.62
2019-01-05T05:40:49.168Z,98.13
2019-01-05T05:41:49.158Z,98.75
2019-01-05T05:42:49.120Z,98.24
2019-01-05T05:43:49.115Z,98.03
2019-01-05T05:44:49.095Z,97.99
2019-01-05T05:45:49.110Z,98.03
2019-01-05T05:46:49.074Z,97.93
2019-01-05T05:47:49.098Z,97.88
2019-01-05T05:48:49.057Z,98.40
2019-01-05T05:49:49.044Z,97.78
2019-01-05T05:50:49.052Z,97.78
2019-01-05T05:51:49.018Z,97.57
2019-01-05T05:52:49.003Z,97.31
2019-01-05T05:53:49.045Z,97.88
2019-01-05T05:54:48.986Z,97.67
2019-01-05T05:55:49.008Z,97.93
2019-01-05T05:56:48.984Z,97.72
2019-01-05T05:57:48.952Z,97.99
2019-01-05T05:58:48.941Z,97.99
2019-01-05T05:59:48.958Z,98.30
2019-01-05T06:00:48.924Z,98.24
2019-01-05T06:01:48.934Z,98.19
2019-01-05T06:02:48.897Z,98.09
2019-01-05T06:03:48.887Z,98.30
2019-01-05T06:04:48.871Z,98.09
2019-01-05T06:05:48.887Z,98.30
2019-01-05T06:06:48.878Z,98.09
2019-01-05T06:07:48.840Z,98.30
2019-01-05T06:08:48.829Z,97.99
2019-01-05T06:09:48.814Z,98.50
2019-01-05T06:10:48.803Z,98.30
2019-01-05T06:11:48.842Z,98.71
2019-01-05T06:12:48.782Z,98.71
2019-01-05T06:13:48.774Z,97.99
2019-01-05T06:14:48.760Z,98.30
2019-01-05T06:15:48.748Z,98.40
2019-01-05T06:16:48.766Z,98.61
2019-01-05T06:17:48.756Z,98.50
2019-01-05T06:18:48.722Z,98.87
2019-01-05T06:19:48.709Z,98.92
2019-01-05T06:20:48.700Z,98.77
2019-01-05T06:21:48.715Z,98.66
2019-01-05T06:22:48.670Z,98.61
2019-01-05T06:23:48.685Z,98.15
2019-01-05T06:24:48.653Z,98.46
2019-01-05T06:25:48.640Z,98.25
2019-01-05T06:26:48.653Z,98.15
2019-01-05T06:27:48.614Z,98.35
2019-01-05T06:28:48.640Z,98.61
2019-01-05T06:29:48.623Z,98.77
2019-01-05T06:30:48.582Z,98.46
2019-01-05T06:31:48.574Z,98.35
2019-01-05T06:32:48.584Z,98.35
2019-01-05T06:33:48.552Z,98.35
2019-01-05T06:34:48.544Z,98.35
2019-01-05T06:35:48.536Z,98.46
2019-01-05T06:36:48.549Z,97.94
2019-01-05T06:37:48.538Z,98.46
2019-01-05T06:38:48.493Z,98.05
2019-01-05T06:39:48.480Z,98.46
2019-01-05T06:40:48.476Z,98.35
2019-01-05T06:41:48.462Z,98.10
2019-01-05T06:42:48.519Z,98.21
2019-01-05T06:43:48.449Z,98.31
2019-01-05T06:44:48.431Z,98.10
2019-01-05T06:45:48.427Z,98.31
2019-01-05T06:46:48.412Z,98.00
2019-01-05T06:47:48.428Z,97.84
2019-01-05T06:48:48.421Z,98.05
2019-01-05T06:49:48.374Z,98.05
2019-01-05T06:50:48.365Z,98.21
2019-01-05T06:51:48.354Z,97.89
2019-01-05T06:52:48.364Z,97.94
2019-01-05T06:53:48.329Z,98.31
2019-01-05T06:54:48.376Z,98.10
2019-01-05T06:55:48.307Z,98.10
2019-01-05T06:56:48.296Z,98.00
2019-01-05T06:57:48.308Z,97.84
2019-01-05T06:58:48.279Z,98.25
2019-01-05T06:59:48.263Z,98.00
2019-01-05T07:00:48.298Z,98.10
2019-01-05T07:01:48.238Z,98.10
2019-01-05T07:02:48.254Z,98.21
2019-01-05T07:03:48.218Z,98.31
2019-01-05T07:04:48.232Z,98.10
2019-01-05T07:05:48.197Z,98.31
2019-01-05T07:06:48.207Z,98.41
2019-01-05T07:07:48.172Z,98.21
2019-01-05T07:08:48.191Z,97.89
2019-01-05T07:09:48.151Z,98.10
2019-01-05T07:10:48.141Z,98.31
2019-01-05T07:11:48.143Z,98.31
2019-01-05T07:12:48.163Z,97.89
2019-01-05T07:13:48.141Z,98.10
2019-01-05T07:14:48.098Z,98.52
2019-01-05T07:15:48.088Z,97.79
2019-01-05T07:16:48.075Z,98.41
2019-01-05T07:17:48.071Z,97.89
2019-01-05T07:18:49.969Z,97.79
2019-01-05T07:19:48.040Z,98.31
2019-01-05T07:20:48.028Z,98.10
2019-01-05T07:21:48.028Z,98.31
2019-01-05T07:22:48.010Z,97.89
2019-01-05T07:23:48.028Z,97.79
2019-01-05T07:24:48.020Z,98.10
2019-01-05T07:25:47.975Z,97.85
2019-01-05T07:26:47.966Z,97.69
2019-01-05T07:27:47.958Z,97.33
2019-01-05T07:28:47.966Z,97.89
2019-01-05T07:29:47.934Z,97.64
2019-01-05T07:30:47.943Z,97.79
2019-01-05T07:31:47.908Z,97.59
2019-01-05T07:32:47.904Z,98.47
2019-01-05T07:33:47.908Z,98.16
2019-01-05T07:34:47.878Z,98.27
2019-01-05T07:35:47.894Z,97.75
2019-01-05T07:36:47.875Z,98.37
2019-01-05T07:37:47.847Z,98.52
2019-01-05T07:38:47.837Z,98.06
2019-01-05T07:39:47.844Z,98.16
2019-01-05T07:40:47.811Z,98.06
2019-01-05T07:41:47.794Z,97.79
2019-01-05T07:42:47.819Z,97.89
2019-01-05T07:43:47.775Z,98.16
2019-01-05T07:44:47.789Z,98.47
2019-01-05T07:45:47.756Z,98.27
2019-01-05T07:46:47.741Z,98.31
2019-01-05T07:47:47.730Z,98.06
2019-01-05T07:48:47.747Z,97.75
2019-01-05T07:49:47.736Z,97.96
2019-01-05T07:50:47.706Z,97.85
2019-01-05T07:51:47.687Z,98.06
2019-01-05T07:52:47.678Z,98.06
2019-01-05T07:53:47.666Z,98.06
2019-01-05T07:54:47.711Z,98.16
2019-01-05T07:55:47.650Z,98.06
2019-01-05T07:56:47.661Z,98.47
2019-01-05T07:57:47.627Z,98.47
2019-01-05T07:58:47.615Z,98.06
2019-01-05T07:59:47.602Z,98.37
2019-01-05T08:00:47.652Z,98.27
2019-01-05T08:01:47.581Z,98.27
2019-01-05T08:02:47.568Z,98.16
2019-01-05T08:03:47.555Z,98.57
2019-01-05T08:04:47.549Z,98.27
2019-01-05T08:05:47.555Z,98.68
2019-01-05T08:06:47.568Z,98.57
2019-01-05T08:07:47.521Z,98.57
2019-01-05T08:08:47.502Z,98.37
2019-01-05T08:09:47.491Z,98.78
2019-01-05T08:10:47.505Z,98.57
2019-01-05T08:11:47.467Z,98.57
2019-01-05T08:12:47.491Z,98.78
2019-01-05T08:13:47.450Z,98.78
2019-01-05T08:14:47.432Z,98.99
2019-01-05T08:15:47.448Z,98.68
2019-01-05T08:16:47.414Z,98.78
2019-01-05T08:17:47.404Z,98.27
2019-01-05T08:18:47.427Z,98.78
2019-01-05T08:19:47.382Z,98.78
2019-01-05T08:20:47.393Z,98.47
2019-01-05T08:21:47.354Z,98.78
2019-01-05T08:22:47.348Z,98.68
2019-01-05T08:23:47.335Z,98.47
2019-01-05T08:24:47.369Z,98.47
2019-01-05T08:25:47.340Z,98.68
2019-01-05T08:26:47.301Z,98.06
2019-01-05T08:27:47.294Z,98.63
2019-01-05T08:28:47.278Z,98.47
2019-01-05T08:29:47.274Z,97.81
2019-01-05T08:30:47.332Z,98.06
2019-01-05T08:31:47.245Z,98.47
2019-01-05T08:32:47.272Z,98.16
2019-01-05T08:33:47.229Z,98.27
2019-01-05T08:34:47.218Z,98.37
2019-01-05T08:35:47.209Z,98.27
2019-01-05T08:36:47.249Z,98.43
2019-01-05T08:37:47.180Z,97.50
2019-01-05T08:38:47.171Z,98.32
2019-01-05T08:39:47.167Z,98.01
2019-01-05T08:40:47.145Z,98.01
2019-01-05T08:41:47.158Z,98.06
2019-01-05T08:42:47.136Z,97.96
2019-01-05T08:43:47.116Z,98.27
2019-01-05T08:44:47.103Z,97.50
2019-01-05T08:45:47.089Z,98.22
2019-01-05T08:46:47.109Z,97.75
2019-01-05T08:47:47.069Z,98.63
2019-01-05T08:48:47.099Z,97.71
2019-01-05T08:49:47.047Z,98.47
2019-01-05T08:50:47.033Z,97.85
2019-01-05T08:51:47.056Z,98.37
2019-01-05T08:52:47.013Z,98.57
2019-01-05T08:53:47.024Z,98.47
2019-01-05T08:54:47.016Z,98.57
2019-01-05T08:55:46.982Z,98.68
2019-01-05T08:56:46.972Z,98.78
2019-01-05T08:57:46.984Z,98.57
2019-01-05T08:58:46.947Z,98.57
2019-01-05T08:59:46.937Z,98.78
2019-01-05T09:00:46.954Z,98.53
2019-01-05T09:01:46.913Z,98.57
2019-01-05T09:02:46.929Z,98.78
2019-01-05T09:03:46.892Z,98.57
2019-01-05T09:04:46.878Z,98.94
2019-01-05T09:05:46.869Z,98.47
2019-01-05T09:06:46.884Z,98.78
2019-01-05T09:07:46.879Z,98.78
2019-01-05T09:08:46.838Z,98.74
2019-01-05T09:09:46.824Z,98.57
2019-01-05T09:10:46.817Z,98.78
2019-01-05T09:11:46.802Z,98.68
2019-01-05T09:12:46.853Z,98.47
2019-01-05T09:13:46.782Z,98.84
2019-01-05T09:14:46.795Z,98.68
2019-01-05T09:15:46.758Z,98.68
2019-01-05T09:16:46.745Z,98.57
2019-01-05T09:17:46.760Z,98.32
2019-01-05T09:18:47.406Z,98.57
2019-01-05T09:19:46.712Z,98.53
2019-01-05T09:20:46.702Z,97.91
2019-01-05T09:21:46.695Z,97.85
2019-01-05T09:22:46.679Z,98.68
2019-01-05T09:23:46.764Z,98.27
2019-01-05T09:24:46.657Z,97.96
2019-01-05T09:25:46.647Z,98.47
2019-01-05T09:26:46.637Z,98.43
2019-01-05T09:27:46.627Z,98.43
2019-01-05T09:28:46.640Z,98.43
2019-01-05T09:29:46.611Z,97.91
2019-01-05T09:30:46.618Z,98.06
2019-01-05T09:31:46.584Z,97.75
2019-01-05T09:32:46.571Z,98.47
2019-01-05T09:33:46.581Z,98.16
2019-01-05T09:34:46.560Z,98.43
2019-01-05T09:35:46.536Z,98.22
2019-01-05T09:36:46.528Z,98.27
2019-01-05T09:37:46.590Z,98.32
2019-01-05T09:38:46.526Z,98.01
2019-01-05T09:39:46.490Z,98.47
2019-01-05T09:40:46.481Z,97.85
2019-01-05T09:41:46.499Z,98.01
2019-01-05T09:42:46.457Z,97.85
2019-01-05T09:43:46.493Z,98.68
2019-01-05T09:44:46.457Z,98.53
2019-01-05T09:45:46.425Z,98.57
2019-01-05T09:46:46.418Z,98.63
2019-01-05T09:47:46.405Z,98.63
2019-01-05T09:48:46.396Z,98.68
2019-01-05T09:49:46.433Z,98.78
2019-01-05T09:50:46.369Z,98.47
2019-01-05T09:51:46.362Z,98.78
2019-01-05T09:52:46.351Z,98.57
2019-01-05T09:53:46.336Z,98.53
2019-01-05T09:54:46.355Z,98.74
2019-01-05T09:55:46.341Z,98.63
2019-01-05T09:56:46.311Z,98.32
2019-01-05T09:57:46.293Z,98.63
2019-01-05T09:58:46.284Z,98.32
2019-01-05T09:59:46.294Z,98.22
2019-01-05T10:00:46.257Z,98.32
2019-01-05T10:01:46.262Z,97.96
2019-01-05T10:02:46.267Z,98.32
2019-01-05T10:03:46.227Z,98.22
2019-01-05T10:04:46.248Z,98.27
2019-01-05T10:05:46.203Z,98.32
2019-01-05T10:06:46.191Z,98.32
